createdAt,value
2018-10-04T00:01:52.192Z,2.20
2018-10-04T00:04:19.665Z,1.10
2018-10-04T00:06:47.066Z,1.10
2018-10-04T00:09:14.547Z,1.15
2018-10-04T00:11:42.023Z,1.42
2018-10-04T00:14:09.562Z,1.55
2018-10-04T00:16:37.190Z,1.90
2018-10-04T00:19:04.623Z,1.30
2018-10-04T00:21:32.014Z,1.60
2018-10-04T00:23:59.535Z,1.45
2018-10-04T00:26:26.995Z,1.35
2018-10-04T00:28:54.532Z,1.92
2018-10-04T00:31:22.032Z,1.42
2018-10-04T00:33:50.156Z,1.83
2018-10-04T00:36:17.612Z,1.33
2018-10-04T00:38:45.378Z,1.52
2018-10-04T00:41:12.918Z,2.10
2018-10-04T00:43:40.357Z,2.28
2018-10-04T00:46:07.840Z,1.10
2018-10-04T00:48:35.273Z,1.33
2018-10-04T00:51:02.792Z,1.50
2018-10-04T00:53:30.232Z,1.60
2018-10-04T00:55:57.672Z,1.40
2018-10-04T00:58:25.119Z,1.50
2018-10-04T01:00:52.559Z,1.52
2018-10-04T01:03:20.048Z,2.20
2018-10-04T01:05:47.529Z,3.05
2018-10-04T01:08:14.981Z,1.67
2018-10-04T01:10:42.449Z,1.48
2018-10-04T01:13:10.140Z,1.37
2018-10-04T01:15:37.601Z,2.00
2018-10-04T01:20:57.859Z,3.20
2018-10-04T01:23:25.340Z,2.62
2018-10-04T01:25:52.746Z,2.78
2018-10-04T01:28:20.159Z,1.85
2018-10-04T01:30:47.601Z,2.25
2018-10-04T01:33:15.045Z,1.62
2018-10-04T01:35:42.508Z,1.70
2018-10-04T01:38:09.941Z,2.22
2018-10-04T01:40:37.373Z,2.70
2018-10-04T01:43:04.857Z,1.52
2018-10-04T01:45:33.083Z,2.20
2018-10-04T01:48:00.495Z,2.35
2018-10-04T01:50:27.927Z,2.15
2018-10-04T01:52:55.323Z,2.72
2018-10-04T01:55:22.760Z,2.30
2018-10-04T01:57:50.195Z,2.40
2018-10-04T02:00:17.687Z,2.22
2018-10-04T02:02:45.222Z,2.53
2018-10-04T02:05:12.720Z,2.10
2018-10-04T02:07:40.161Z,1.85
2018-10-04T02:10:07.677Z,2.10
2018-10-04T02:12:35.120Z,2.40
2018-10-04T02:15:02.575Z,2.70
2018-10-04T02:17:30.016Z,1.80
2018-10-04T02:19:57.679Z,2.75
2018-10-04T02:22:25.151Z,2.55
2018-10-04T02:24:52.588Z,1.80
2018-10-04T02:27:20.032Z,2.58
2018-10-04T02:29:47.652Z,2.17
2018-10-04T02:32:15.057Z,2.28
2018-10-04T02:34:42.512Z,1.95
2018-10-04T02:37:09.934Z,1.70
2018-10-04T02:39:37.408Z,2.10
2018-10-04T02:42:04.907Z,3.33
2018-10-04T02:44:32.343Z,2.05
2018-10-04T02:46:59.792Z,2.12
2018-10-04T02:49:27.330Z,2.67
2018-10-04T02:51:54.744Z,2.00
2018-10-04T02:54:22.229Z,2.92
2018-10-04T02:56:52.079Z,2.47
2018-10-04T02:59:19.515Z,2.25
2018-10-04T03:01:47.095Z,2.40
2018-10-04T03:04:15.242Z,2.00
2018-10-04T03:06:43.468Z,2.53
2018-10-04T03:09:10.961Z,3.28
2018-10-04T03:11:38.404Z,3.08
2018-10-04T03:14:05.835Z,2.85
2018-10-04T03:16:33.244Z,3.55
2018-10-04T03:19:00.654Z,1.83
2018-10-04T03:21:28.225Z,2.78
2018-10-04T03:23:55.670Z,2.95
2018-10-04T03:26:23.101Z,2.40
2018-10-04T03:28:50.535Z,2.72
2018-10-04T03:31:17.943Z,2.95
2018-10-04T03:33:45.392Z,2.30
2018-10-04T03:36:12.786Z,3.22
2018-10-04T03:38:40.245Z,2.97
2018-10-04T03:41:07.821Z,2.35
2018-10-04T03:43:35.343Z,3.42
2018-10-04T03:46:02.738Z,4.90
2018-10-04T03:48:30.154Z,3.58
2018-10-04T03:50:57.566Z,3.75
2018-10-04T03:53:25.154Z,3.25
2018-10-04T03:55:52.630Z,2.83
2018-10-04T03:58:20.144Z,3.25
2018-10-04T04:00:47.583Z,2.80
2018-10-04T04:03:14.993Z,3.08
2018-10-04T04:05:42.478Z,3.00
2018-10-04T04:08:09.927Z,2.70
2018-10-04T04:10:37.378Z,2.90
2018-10-04T04:13:04.840Z,3.05
2018-10-04T04:15:32.297Z,3.95
2018-10-04T04:17:59.781Z,2.85
2018-10-04T04:20:27.193Z,3.83
2018-10-04T04:22:54.763Z,2.95
2018-10-04T04:25:22.365Z,4.43
2018-10-04T04:27:49.774Z,3.05
2018-10-04T04:30:17.277Z,3.33
2018-10-04T04:32:44.890Z,4.62
2018-10-04T04:35:12.468Z,2.80
2018-10-04T04:37:39.931Z,3.30
2018-10-04T04:40:07.408Z,3.10
2018-10-04T04:42:34.920Z,2.87
2018-10-04T04:45:02.377Z,2.53
2018-10-04T04:47:29.830Z,3.20
2018-10-04T04:49:57.288Z,2.83
2018-10-04T04:52:24.776Z,2.83
2018-10-04T04:54:52.218Z,3.20
2018-10-04T04:57:19.710Z,2.25
2018-10-04T04:59:47.535Z,2.65
2018-10-04T05:02:15.031Z,6.07
2018-10-04T05:04:42.517Z,3.53
2018-10-04T05:07:10.011Z,4.03
2018-10-04T05:09:37.475Z,3.58
2018-10-04T05:12:04.964Z,3.95
2018-10-04T05:14:32.524Z,4.32
2018-10-04T05:17:00.008Z,5.18
2018-10-04T05:19:27.521Z,4.32
2018-10-04T05:21:55.084Z,3.15
2018-10-04T05:24:22.616Z,3.30
2018-10-04T05:26:50.034Z,3.42
2018-10-04T05:29:17.610Z,4.40
2018-10-04T05:31:45.210Z,4.55
2018-10-04T05:34:12.705Z,4.70
2018-10-04T05:36:41.214Z,4.45
2018-10-04T05:39:08.660Z,3.40
2018-10-04T05:41:36.395Z,4.32
2018-10-04T05:44:03.869Z,5.65
2018-10-04T05:46:31.361Z,4.18
2018-10-04T05:48:58.880Z,6.00
2018-10-04T05:51:26.356Z,4.78
2018-10-04T05:53:53.834Z,5.20
2018-10-04T05:56:21.341Z,4.95
2018-10-04T05:58:48.788Z,4.80
2018-10-04T06:01:16.237Z,5.37
2018-10-04T06:03:43.971Z,5.15
2018-10-04T06:06:11.407Z,4.28
2018-10-04T06:08:38.814Z,5.82
2018-10-04T06:11:06.402Z,5.68
2018-10-04T06:13:33.876Z,6.10
2018-10-04T06:16:01.343Z,6.80
2018-10-04T06:18:29.236Z,5.35
2018-10-04T06:20:56.707Z,6.12
2018-10-04T06:23:24.224Z,6.90
2018-10-04T06:25:52.290Z,5.75
2018-10-04T06:28:19.741Z,5.50
2018-10-04T06:30:47.165Z,4.97
2018-10-04T06:33:14.629Z,5.22
2018-10-04T06:35:42.062Z,5.28
2018-10-04T06:38:09.535Z,5.03
2018-10-04T06:40:37.256Z,5.37
2018-10-04T06:43:04.831Z,5.80
2018-10-04T06:45:32.362Z,7.22
2018-10-04T06:48:00.782Z,5.12
2018-10-04T06:50:28.507Z,7.62
2018-10-04T06:52:56.028Z,4.75
2018-10-04T06:55:23.497Z,6.20
2018-10-04T06:57:50.945Z,7.20
2018-10-04T07:00:18.398Z,17.08
2018-10-04T07:02:45.932Z,10.07
2018-10-04T07:05:13.444Z,6.68
2018-10-04T07:07:40.935Z,7.95
2018-10-04T07:10:08.416Z,7.12
2018-10-04T07:12:36.230Z,7.90
2018-10-04T07:15:03.760Z,8.20
2018-10-04T07:17:31.388Z,10.65
2018-10-04T07:19:58.844Z,6.15
2018-10-04T07:22:26.358Z,7.72
2018-10-04T07:24:53.889Z,5.55
2018-10-04T07:27:21.470Z,6.80
2018-10-04T07:29:48.928Z,9.38
2018-10-04T07:32:16.722Z,6.00
2018-10-04T07:34:44.360Z,7.85
2018-10-04T07:37:11.866Z,6.30
2018-10-04T07:39:39.360Z,6.80
2018-10-04T07:42:07.011Z,7.32
2018-10-04T07:44:34.464Z,6.80
2018-10-04T07:47:02.009Z,6.78
2018-10-04T07:49:29.431Z,6.78
2018-10-04T07:51:57.725Z,8.18
2018-10-04T07:54:25.134Z,8.15
2018-10-04T07:56:52.687Z,8.10
2018-10-04T07:59:20.196Z,7.15
2018-10-04T08:01:47.633Z,6.55
2018-10-04T08:04:15.162Z,7.43
2018-10-04T08:06:42.830Z,6.37
2018-10-04T08:09:10.046Z,6.20
2018-10-04T08:11:37.471Z,7.78
2018-10-04T08:14:05.060Z,8.75
2018-10-04T08:16:32.514Z,8.85
2018-10-04T08:19:00.356Z,7.20
2018-10-04T08:21:27.792Z,7.50
2018-10-04T08:23:55.495Z,7.15
2018-10-04T08:26:22.905Z,7.12
2018-10-04T08:28:50.417Z,8.13
2018-10-04T08:31:17.897Z,6.07
2018-10-04T08:33:46.136Z,7.60
2018-10-04T08:36:13.685Z,8.55
2018-10-04T08:38:41.231Z,9.68
2018-10-04T08:41:08.728Z,6.78
2018-10-04T08:43:36.140Z,9.77
2018-10-04T08:46:03.637Z,7.60
2018-10-04T08:48:31.173Z,9.27
2018-10-04T08:50:58.684Z,7.37
2018-10-04T08:53:26.142Z,13.48
2018-10-04T08:55:53.597Z,7.93
2018-10-04T08:58:21.036Z,8.38
2018-10-04T09:00:48.461Z,8.02
2018-10-04T09:03:15.925Z,8.82
2018-10-04T09:05:43.693Z,6.72
2018-10-04T09:08:11.152Z,6.80
2018-10-04T09:10:38.588Z,6.80
2018-10-04T09:13:06.152Z,7.65
2018-10-04T09:15:33.718Z,7.65
2018-10-04T09:18:01.178Z,8.35
2018-10-04T09:20:28.635Z,7.82
2018-10-04T09:22:56.088Z,7.78
2018-10-04T09:25:23.536Z,8.00
2018-10-04T09:27:51.063Z,7.75
2018-10-04T09:30:18.521Z,7.50
2018-10-04T09:32:45.974Z,8.40
2018-10-04T09:35:13.424Z,7.07
2018-10-04T09:37:40.882Z,7.28
2018-10-04T09:40:08.334Z,7.95
2018-10-04T09:42:35.796Z,6.25
2018-10-04T09:45:03.350Z,7.55
2018-10-04T09:47:30.795Z,7.20
2018-10-04T09:49:58.294Z,9.60
2018-10-04T09:52:25.816Z,7.90
2018-10-04T09:54:53.322Z,9.00
2018-10-04T09:57:20.799Z,7.37
2018-10-04T09:59:48.327Z,8.15
2018-10-04T10:02:15.773Z,6.93
2018-10-04T10:04:43.334Z,8.75
2018-10-04T10:07:10.803Z,8.25
2018-10-04T10:09:38.254Z,7.03
2018-10-04T10:12:05.890Z,7.55
2018-10-04T10:14:33.389Z,6.80
2018-10-04T10:17:00.815Z,7.68
2018-10-04T10:19:28.405Z,7.65
2018-10-04T10:21:56.166Z,8.38
2018-10-04T10:24:24.439Z,8.48
2018-10-04T10:26:51.968Z,8.00
2018-10-04T10:29:20.607Z,6.90
2018-10-04T10:31:48.089Z,8.10
2018-10-04T10:34:15.525Z,6.50
2018-10-04T10:36:43.869Z,6.18
2018-10-04T10:39:11.376Z,7.90
2018-10-04T10:41:38.828Z,6.60
2018-10-04T10:44:06.295Z,5.93
2018-10-04T10:46:33.844Z,7.97
2018-10-04T10:49:01.426Z,6.78
2018-10-04T10:51:28.892Z,8.40
2018-10-04T10:53:56.589Z,9.95
2018-10-04T10:56:24.058Z,8.00
2018-10-04T10:58:51.543Z,8.63
2018-10-04T11:01:19.025Z,7.15
2018-10-04T11:03:46.483Z,6.70
2018-10-04T11:08:41.111Z,8.90
2018-10-04T11:11:08.653Z,15.10
2018-10-04T11:16:03.164Z,9.80
2018-10-04T11:18:30.719Z,10.40
2018-10-04T11:20:58.289Z,8.40
2018-10-04T11:23:25.960Z,8.73
2018-10-04T11:25:53.436Z,8.65
2018-10-04T11:30:47.809Z,7.95
2018-10-04T11:33:15.411Z,10.05
2018-10-04T11:35:42.829Z,8.95
2018-10-04T11:38:10.658Z,8.80
2018-10-04T11:40:38.202Z,9.93
2018-10-04T11:43:05.659Z,8.77
2018-10-04T11:45:33.737Z,9.90
2018-10-04T11:48:01.367Z,8.13
2018-10-04T11:50:28.901Z,8.70
2018-10-04T11:52:56.392Z,8.07
2018-10-04T11:55:24.068Z,8.32
2018-10-04T11:57:51.710Z,9.30
2018-10-04T12:00:19.234Z,9.00
2018-10-04T12:02:47.381Z,8.50
2018-10-04T12:05:14.894Z,9.13
2018-10-04T12:07:42.374Z,8.55
2018-10-04T12:10:09.860Z,8.55
2018-10-04T12:12:37.339Z,7.70
2018-10-04T12:15:04.786Z,7.18
2018-10-04T12:17:32.210Z,7.72
2018-10-04T12:19:59.646Z,6.57
2018-10-04T12:22:27.140Z,6.85
2018-10-04T12:24:54.600Z,7.32
2018-10-04T12:27:22.109Z,6.00
2018-10-04T12:29:49.540Z,7.30
2018-10-04T12:32:17.093Z,6.93
2018-10-04T12:34:44.647Z,8.20
2018-10-04T12:37:12.195Z,7.68
2018-10-04T12:39:39.766Z,7.75
2018-10-04T12:42:07.242Z,8.30
2018-10-04T12:44:34.654Z,8.50
2018-10-04T12:47:02.062Z,7.45
2018-10-04T12:49:29.587Z,7.15
2018-10-04T12:51:56.991Z,8.07
2018-10-04T12:54:24.530Z,9.27
2018-10-04T12:56:51.986Z,7.95
2018-10-04T12:59:19.524Z,7.37
2018-10-04T13:01:47.009Z,8.80
2018-10-04T13:04:14.500Z,8.82
2018-10-04T13:06:42.003Z,7.35
2018-10-04T13:09:09.563Z,10.07
2018-10-04T13:11:37.034Z,9.18
2018-10-04T13:14:04.524Z,9.45
2018-10-04T13:16:32.144Z,8.40
2018-10-04T13:18:59.632Z,9.30
2018-10-04T13:21:27.119Z,9.65
2018-10-04T13:23:54.519Z,11.02
2018-10-04T13:26:22.122Z,8.23
2018-10-04T13:28:49.753Z,8.80
2018-10-04T13:31:17.224Z,8.88
2018-10-04T13:33:44.826Z,8.25
2018-10-04T13:36:12.256Z,9.40
2018-10-04T13:38:39.653Z,8.75
2018-10-04T13:41:07.218Z,7.37
2018-10-04T13:43:34.708Z,11.32
2018-10-04T13:46:02.149Z,6.90
2018-10-04T13:48:29.765Z,6.72
2018-10-04T13:50:57.331Z,8.70
2018-10-04T13:53:26.130Z,7.18
2018-10-04T13:55:53.624Z,7.45
2018-10-04T13:58:21.390Z,8.02
2018-10-04T14:00:49.623Z,8.50
2018-10-04T14:03:17.216Z,7.32
2018-10-04T14:05:44.700Z,7.30
2018-10-04T14:08:12.167Z,6.62
2018-10-04T14:10:40.098Z,6.65
2018-10-04T14:13:07.674Z,6.80
2018-10-04T14:15:35.078Z,5.80
2018-10-04T14:18:02.636Z,6.18
2018-10-04T14:20:30.054Z,7.57
2018-10-04T14:22:57.487Z,8.02
2018-10-04T14:25:24.955Z,6.47
2018-10-04T14:30:25.077Z,6.35
2018-10-04T14:32:52.672Z,5.35
2018-10-04T14:35:20.089Z,5.93
2018-10-04T14:37:47.698Z,6.25
2018-10-04T14:40:15.184Z,6.82
2018-10-04T14:42:42.611Z,5.90
2018-10-04T14:45:10.202Z,5.00
2018-10-04T14:47:37.615Z,6.57
2018-10-04T14:50:05.112Z,5.15
2018-10-04T14:52:32.609Z,6.12
2018-10-04T14:55:00.109Z,5.70
2018-10-04T14:57:28.825Z,6.90
2018-10-04T14:59:56.255Z,6.35
2018-10-04T15:02:23.687Z,5.18
2018-10-04T15:04:51.132Z,6.22
2018-10-04T15:07:18.580Z,5.72
2018-10-04T15:09:46.018Z,6.45
2018-10-04T15:12:13.450Z,5.47
2018-10-04T15:14:40.973Z,4.72
2018-10-04T15:17:08.437Z,7.65
2018-10-04T15:19:35.955Z,4.93
2018-10-04T15:22:03.563Z,5.78
2018-10-04T15:24:31.960Z,5.50
2018-10-04T15:26:59.443Z,5.32
2018-10-04T15:29:26.959Z,4.57
2018-10-04T15:31:54.454Z,5.90
2018-10-04T15:34:21.964Z,5.72
2018-10-04T15:36:49.574Z,5.60
2018-10-04T15:39:17.015Z,5.03
2018-10-04T15:41:44.497Z,6.10
2018-10-04T15:44:11.985Z,5.90
2018-10-04T15:46:39.477Z,6.40
2018-10-04T15:49:06.903Z,4.57
2018-10-04T15:51:34.407Z,3.78
2018-10-04T15:54:01.899Z,6.62
2018-10-04T15:56:29.378Z,4.70
2018-10-04T15:58:56.819Z,5.35
2018-10-04T16:01:24.282Z,4.70
2018-10-04T16:03:51.750Z,3.92
2018-10-04T16:06:19.275Z,5.35
2018-10-04T16:08:46.749Z,6.30
2018-10-04T16:11:14.199Z,10.70
2018-10-04T16:13:42.029Z,5.87
2018-10-04T16:16:10.394Z,8.45
2018-10-04T16:18:37.909Z,9.23
2018-10-04T16:21:05.458Z,7.00
2018-10-04T16:23:32.911Z,13.52
2018-10-04T16:26:00.431Z,9.50
2018-10-04T16:28:27.870Z,8.20
2018-10-04T16:30:55.346Z,9.10
2018-10-04T16:33:22.919Z,13.55
2018-10-04T16:35:50.360Z,9.40
2018-10-04T16:38:17.959Z,9.77
2018-10-04T16:40:45.418Z,9.88
2018-10-04T16:43:12.855Z,9.18
2018-10-04T16:45:40.336Z,9.35
2018-10-04T16:48:08.135Z,8.15
2018-10-04T16:50:35.675Z,7.95
2018-10-04T16:53:03.088Z,6.90
2018-10-04T16:55:30.647Z,8.43
2018-10-04T17:07:46.367Z,6.00
2018-10-04T17:10:13.907Z,6.90
2018-10-04T17:12:41.426Z,7.03
2018-10-04T17:15:09.113Z,5.50
2018-10-04T17:17:36.540Z,11.60
2018-10-04T17:20:03.954Z,5.72
2018-10-04T17:22:31.472Z,5.45
2018-10-04T17:24:58.998Z,4.43
2018-10-04T17:27:26.962Z,5.90
2018-10-04T17:29:54.428Z,4.07
2018-10-04T17:32:21.959Z,4.05
2018-10-04T17:34:49.460Z,7.10
2018-10-04T17:37:16.938Z,6.32
2018-10-04T17:39:44.408Z,5.43
2018-10-04T17:42:12.036Z,5.25
2018-10-04T17:44:39.545Z,7.18
2018-10-04T17:47:06.970Z,6.00
2018-10-04T17:49:34.425Z,5.47
2018-10-04T17:52:02.461Z,6.57
2018-10-04T17:54:29.866Z,6.15
2018-10-04T17:56:57.373Z,6.65
2018-10-04T17:59:24.857Z,6.18
2018-10-04T18:01:52.343Z,6.43
2018-10-04T18:04:19.828Z,7.70
2018-10-04T18:06:47.298Z,7.10
2018-10-04T18:09:14.755Z,8.02
2018-10-04T18:11:42.772Z,7.62
2018-10-04T18:14:10.309Z,6.40
2018-10-04T18:16:37.966Z,4.10
2018-10-04T18:19:05.481Z,6.25
2018-10-04T18:21:33.028Z,5.55
2018-10-04T18:24:00.509Z,4.37
2018-10-04T18:26:27.985Z,6.00
2018-10-04T18:28:55.431Z,4.87
2018-10-04T18:31:22.920Z,4.20
2018-10-04T18:33:50.342Z,4.70
2018-10-04T18:36:17.848Z,5.53
2018-10-04T18:38:45.338Z,5.45
2018-10-04T18:41:12.831Z,5.87
2018-10-04T18:43:40.260Z,5.65
2018-10-04T18:46:07.655Z,5.32
2018-10-04T18:48:35.148Z,5.85
2018-10-04T18:51:02.624Z,4.60
2018-10-04T18:53:30.015Z,5.62
2018-10-04T18:55:57.692Z,5.45
2018-10-04T18:58:26.483Z,5.90
2018-10-04T19:00:53.926Z,5.62
2018-10-04T19:03:21.379Z,5.28
2018-10-04T19:05:48.995Z,7.47
2018-10-04T19:08:16.366Z,7.70
2018-10-04T19:10:43.979Z,5.55
2018-10-04T19:13:23.868Z,6.28
2018-10-04T19:15:51.363Z,5.20
2018-10-04T19:18:18.885Z,5.45
2018-10-04T19:20:46.324Z,5.65
2018-10-04T19:23:13.766Z,5.20
2018-10-04T19:25:41.175Z,5.30
2018-10-04T19:28:08.717Z,3.95
2018-10-04T19:30:36.226Z,5.97
2018-10-04T19:33:03.752Z,6.90
2018-10-04T19:35:31.281Z,4.68
2018-10-04T19:37:58.807Z,5.47
2018-10-04T19:40:26.312Z,7.18
2018-10-04T19:42:53.795Z,6.10
2018-10-04T19:45:21.237Z,6.22
2018-10-04T19:47:48.756Z,6.12
2018-10-04T19:50:16.194Z,5.68
2018-10-04T19:52:43.648Z,4.60
2018-10-04T19:55:11.077Z,4.97
2018-10-04T19:57:38.919Z,6.05
2018-10-04T20:00:06.356Z,5.40
2018-10-04T20:02:33.783Z,13.32
2018-10-04T20:05:01.273Z,5.65
2018-10-04T20:07:28.773Z,5.12
2018-10-04T20:09:56.212Z,5.70
2018-10-04T20:12:23.691Z,6.25
2018-10-04T20:14:51.842Z,5.03
2018-10-04T20:17:19.354Z,6.25
2018-10-04T20:19:46.902Z,5.50
2018-10-04T20:22:15.154Z,6.40
2018-10-04T20:24:42.576Z,6.28
2018-10-04T20:27:10.066Z,6.05
2018-10-04T20:29:37.536Z,7.03
2018-10-04T20:32:05.085Z,5.45
2018-10-04T20:34:32.549Z,7.00
2018-10-04T20:37:00.070Z,6.85
2018-10-04T20:39:27.538Z,7.07
2018-10-04T20:41:55.002Z,5.57
2018-10-04T20:44:23.297Z,6.43
2018-10-04T20:46:50.794Z,5.97
2018-10-04T20:49:18.216Z,5.10
2018-10-04T20:51:45.770Z,5.18
2018-10-04T20:54:13.418Z,4.70
2018-10-04T20:56:40.838Z,4.47
2018-10-04T20:59:08.305Z,5.32
2018-10-04T21:01:35.708Z,4.00
2018-10-04T21:04:03.259Z,4.57
2018-10-04T21:06:30.878Z,5.10
2018-10-04T21:08:58.509Z,5.28
2018-10-04T21:11:25.967Z,3.92
2018-10-04T21:13:53.448Z,3.53
2018-10-04T21:16:21.202Z,5.07
2018-10-04T21:18:48.720Z,4.35
2018-10-04T21:21:16.305Z,4.43
2018-10-04T21:23:43.741Z,4.43
2018-10-04T21:26:12.050Z,4.07
2018-10-04T21:28:39.460Z,4.37
2018-10-04T21:31:08.082Z,4.00
2018-10-04T21:33:35.576Z,4.50
2018-10-04T21:36:03.063Z,4.80
2018-10-04T21:38:30.530Z,4.50
2018-10-04T21:40:57.968Z,4.53
2018-10-04T21:43:26.004Z,5.05
2018-10-04T21:45:53.560Z,4.72
2018-10-04T21:48:20.979Z,4.60
2018-10-04T21:50:48.487Z,3.92
2018-10-04T21:53:15.958Z,5.65
2018-10-04T21:55:43.383Z,4.00
2018-10-04T21:58:11.012Z,4.32
2018-10-04T22:00:38.523Z,3.40
2018-10-04T22:03:06.022Z,5.07
2018-10-04T22:05:33.540Z,5.20
2018-10-04T22:08:01.017Z,5.45
2018-10-04T22:10:28.604Z,4.28
2018-10-04T22:12:56.059Z,4.47
2018-10-04T22:15:23.624Z,4.87
2018-10-04T22:17:52.028Z,6.12
2018-10-04T22:20:19.564Z,7.65
2018-10-04T22:22:46.966Z,5.00
2018-10-04T22:25:14.433Z,6.40
2018-10-04T22:27:41.838Z,4.82
2018-10-04T22:30:09.231Z,6.20
2018-10-04T22:32:36.843Z,5.32
2018-10-04T22:35:04.408Z,5.00
2018-10-04T22:37:32.607Z,4.93
2018-10-04T22:40:00.258Z,6.15
2018-10-04T22:42:27.684Z,3.90
2018-10-04T22:44:55.155Z,4.15
2018-10-04T22:47:22.647Z,4.03
2018-10-04T22:49:50.193Z,4.05
2018-10-04T22:52:17.631Z,4.62
2018-10-04T22:54:45.085Z,4.82
2018-10-04T22:57:12.513Z,5.50
2018-10-04T22:59:40.845Z,3.75
2018-10-04T23:02:08.385Z,4.97
2018-10-04T23:04:35.781Z,4.45
2018-10-04T23:07:03.193Z,5.20
2018-10-04T23:09:30.693Z,4.90
2018-10-04T23:11:58.180Z,7.25
2018-10-04T23:14:25.594Z,5.97
2018-10-04T23:16:53.081Z,4.82
2018-10-04T23:19:20.516Z,5.62
2018-10-04T23:21:47.973Z,4.00
2018-10-04T23:24:15.380Z,5.07
2018-10-04T23:26:42.839Z,5.15
2018-10-04T23:29:10.267Z,6.15
2018-10-04T23:31:37.831Z,7.22
2018-10-04T23:34:05.336Z,6.30
2018-10-04T23:36:32.777Z,10.15
2018-10-04T23:39:00.195Z,4.05
2018-10-04T23:41:27.659Z,4.53
2018-10-04T23:43:55.058Z,4.72
2018-10-04T23:46:23.395Z,3.80
2018-10-04T23:48:50.881Z,3.28
2018-10-04T23:51:18.301Z,3.85
2018-10-04T23:53:45.781Z,4.40
2018-10-04T23:56:13.344Z,4.07
2018-10-04T23:58:40.838Z,3.45
